KAND/AND METAR and TAF weather

Enter ICAO airport designator
Station Type Date Time Source
KAND METAR 2018/07/16 23:56 UTC NOAA

KAND 162356Z AUTO 15004KT 10SM CLR 26/22 A3000 RMK AO2 SLP149 T02610222 10317 20261 51006


Station Type Date Time Source
KAND Decoded METAR 2018/07/16 23:56 UTC NOAA

ANDERSON COUNTY AIRPORT, SC, United States (KAND) 34-30N 82-43W 239M
Jul 16, 2018 - 07:56 PM EDT / 2018.07.16 2356 UTC
Wind: from the SSE (150 degrees) at 5 MPH (4 KT):0
Visibility: 10 mile(s):0
Sky conditions: clear
Temperature: 79.0 F (26.1 C)
Dew Point: 72.0 F (22.2 C)
Relative Humidity: 79%
Pressure (altimeter): 30 in. Hg (1015 hPa)
Pressure tendency: 0.02 inches (0.6 hPa) higher than three hours ago
ob: KAND 162356Z AUTO 15004KT 10SM CLR 26/22 A3000 RMK AO2 SLP149 T02610222 10317 20261 51006
cycle: 0

Station Type Date Time Source
KAND TAF 2018/07/16 18:42 UTC NOAA

TAF KAND 161739Z 1618/1718 21006KT P6SM SCT020 BKN080
TEMPO 1621/1623 4SM -TSRA OVC025CB
FM170300 20003KT P6SM BKN080 PROB30 1703/1709 4SM -TSRA OVC025CB
FM171000 24004KT 6SM BR BKN050
FM171200 24004KT P6SM BKN050 PROB30 1714/1718 4SM -TSRA OVC025CB


Example: see airport list